createdAt,value
2022-10-12T00:00:29.198Z,32.23
2022-10-12T00:02:32.294Z,32.70
2022-10-12T00:04:36.344Z,32.63
2022-10-12T00:06:41.450Z,30.57
2022-10-12T00:08:45.079Z,31.03
2022-10-12T00:10:47.786Z,29.33
2022-10-12T00:12:50.528Z,33.17
2022-10-12T00:14:53.606Z,32.00
2022-10-12T00:16:56.461Z,29.47
2022-10-12T00:19:00.351Z,32.27
2022-10-12T00:21:05.003Z,33.93
2022-10-12T00:23:08.558Z,30.43
2022-10-12T00:25:11.387Z,30.10
2022-10-12T00:27:14.154Z,30.13
2022-10-12T00:29:16.877Z,29.00
2022-10-12T00:31:20.967Z,29.47
2022-10-12T00:33:24.193Z,28.77
2022-10-12T00:35:29.127Z,31.07
2022-10-12T00:37:33.252Z,29.23
2022-10-12T00:39:36.397Z,27.70
2022-10-12T00:41:39.976Z,28.30
2022-10-12T00:43:46.337Z,29.00
2022-10-12T00:45:49.122Z,27.80
2022-10-12T00:47:53.011Z,29.80
2022-10-12T00:49:58.182Z,28.17
2022-10-12T00:52:01.792Z,28.50
2022-10-12T00:54:07.054Z,27.77
2022-10-12T00:56:12.523Z,25.97
2022-10-12T00:58:15.314Z,27.73
2022-10-12T01:00:18.214Z,27.53
2022-10-12T01:02:21.011Z,27.40
2022-10-12T01:04:23.948Z,27.10
2022-10-12T01:06:26.726Z,26.87
2022-10-12T01:08:29.661Z,28.30
2022-10-12T01:10:35.025Z,27.47
2022-10-12T01:12:37.768Z,27.63
2022-10-12T01:14:40.485Z,26.43
2022-10-12T01:16:46.054Z,26.23
2022-10-12T01:18:51.573Z,27.67
2022-10-12T01:21:01.585Z,29.33
2022-10-12T01:23:16.857Z,27.23
2022-10-12T01:25:26.055Z,24.60
2022-10-12T01:27:34.241Z,26.83
2022-10-12T01:29:55.394Z,28.57
2022-10-12T01:32:00.268Z,28.10
2022-10-12T01:34:05.314Z,25.80
2022-10-12T01:36:09.570Z,25.60
2022-10-12T01:38:18.894Z,27.57
2022-10-12T01:40:23.672Z,27.00
2022-10-12T01:42:29.270Z,28.00
2022-10-12T01:44:32.648Z,26.43
2022-10-12T01:46:40.352Z,29.70
2022-10-12T01:48:45.691Z,26.17
2022-10-12T01:50:50.392Z,26.00
2022-10-12T01:52:58.446Z,27.20
2022-10-12T01:55:06.945Z,26.73
2022-10-12T01:57:12.385Z,29.47
2022-10-12T01:59:18.553Z,27.33
2022-10-12T02:01:23.000Z,28.87
2022-10-12T02:03:28.374Z,27.93
2022-10-12T02:05:35.582Z,29.87
2022-10-12T02:07:42.228Z,28.97
2022-10-12T02:09:45.105Z,29.93
2022-10-12T02:11:47.886Z,29.77
2022-10-12T02:13:52.660Z,28.57
2022-10-12T02:15:55.488Z,29.23
2022-10-12T02:17:58.261Z,29.87
2022-10-12T02:20:01.571Z,31.90
2022-10-12T02:22:06.526Z,30.10
2022-10-12T02:24:09.658Z,30.20
2022-10-12T02:26:12.657Z,29.50
2022-10-12T02:28:17.418Z,28.33
2022-10-12T02:30:21.263Z,28.60
2022-10-12T02:32:27.663Z,30.30
2022-10-12T02:34:31.907Z,29.80
2022-10-12T02:36:37.546Z,29.07
2022-10-12T02:38:44.214Z,30.10
2022-10-12T02:40:52.166Z,28.23
2022-10-12T02:43:12.549Z,27.30
2022-10-12T02:45:15.601Z,29.23
2022-10-12T02:47:18.377Z,30.87
2022-10-12T02:49:21.179Z,28.97
2022-10-12T02:51:24.418Z,28.37
2022-10-12T02:53:27.389Z,33.63
2022-10-12T02:55:32.292Z,29.43
2022-10-12T02:57:35.345Z,29.63
2022-10-12T02:59:38.661Z,28.93
2022-10-12T03:01:41.504Z,28.10
2022-10-12T03:03:44.454Z,29.40
2022-10-12T03:05:47.137Z,26.93
2022-10-12T03:07:50.236Z,28.27
2022-10-12T03:09:53.107Z,27.63
2022-10-12T03:11:57.215Z,27.57
2022-10-12T03:14:00.238Z,26.97
2022-10-12T03:16:09.320Z,25.60
2022-10-12T03:18:12.138Z,27.93
2022-10-12T03:20:16.001Z,25.87
2022-10-12T03:22:19.745Z,29.77
2022-10-12T03:24:23.530Z,30.60
2022-10-12T03:26:26.177Z,24.80
2022-10-12T03:28:31.366Z,27.60
2022-10-12T03:30:34.602Z,26.47
2022-10-12T03:32:37.373Z,27.60
2022-10-12T03:34:40.326Z,27.03
2022-10-12T03:36:43.713Z,26.60
2022-10-12T03:38:46.475Z,24.40
2022-10-12T03:40:49.285Z,25.37
2022-10-12T03:42:52.015Z,24.33
2022-10-12T03:44:56.364Z,24.60
2022-10-12T03:46:59.172Z,24.90
2022-10-12T03:49:02.009Z,25.77
2022-10-12T03:51:05.046Z,26.07
2022-10-12T03:53:08.235Z,25.97
2022-10-12T03:55:10.901Z,25.03
2022-10-12T03:57:13.667Z,25.30
2022-10-12T03:59:16.425Z,25.27
2022-10-12T04:01:20.838Z,23.17
2022-10-12T04:03:23.572Z,26.23
2022-10-12T04:05:26.279Z,23.80
2022-10-12T04:07:29.018Z,23.57
2022-10-12T04:09:32.156Z,23.37
2022-10-12T04:11:34.841Z,25.03
2022-10-12T04:13:40.762Z,21.83
2022-10-12T04:15:43.510Z,21.17
2022-10-12T04:17:48.878Z,25.53
2022-10-12T04:19:51.590Z,24.60
2022-10-12T04:21:54.304Z,23.00
2022-10-12T04:23:57.115Z,21.50
2022-10-12T04:26:00.270Z,20.27
2022-10-12T04:28:03.018Z,21.50
2022-10-12T04:30:06.315Z,20.83
2022-10-12T04:32:12.500Z,20.53
2022-10-12T04:34:17.291Z,21.90
2022-10-12T04:36:20.111Z,21.07
2022-10-12T04:38:22.889Z,21.73
2022-10-12T04:40:25.644Z,21.03
2022-10-12T04:42:28.403Z,18.73
2022-10-12T04:44:32.327Z,19.13
2022-10-12T04:46:35.275Z,17.67
2022-10-12T04:48:38.262Z,19.43
2022-10-12T04:50:42.239Z,19.97
2022-10-12T04:52:44.970Z,17.57
2022-10-12T04:54:48.326Z,19.17
2022-10-12T04:56:51.006Z,18.30
2022-10-12T04:58:53.804Z,17.17
2022-10-12T05:00:56.550Z,18.20
2022-10-12T05:02:59.664Z,18.00
2022-10-12T05:05:02.417Z,17.23
2022-10-12T05:07:06.499Z,19.00
2022-10-12T05:09:13.189Z,16.73
2022-10-12T05:11:19.684Z,17.70
2022-10-12T05:13:22.464Z,15.93
2022-10-12T05:15:25.297Z,15.43
2022-10-12T05:17:28.350Z,16.43
2022-10-12T05:19:31.025Z,15.10
2022-10-12T05:21:34.328Z,16.17
2022-10-12T05:23:38.948Z,17.37
2022-10-12T05:25:43.150Z,14.57
2022-10-12T05:27:45.954Z,14.23
2022-10-12T05:29:48.711Z,15.73
2022-10-12T05:31:51.459Z,14.93
2022-10-12T05:33:54.567Z,15.43
2022-10-12T05:35:57.305Z,12.90
2022-10-12T05:37:59.998Z,13.80
2022-10-12T05:40:04.552Z,14.90
2022-10-12T05:42:08.774Z,13.77
2022-10-12T05:44:11.508Z,16.17
2022-10-12T05:46:14.701Z,12.93
2022-10-12T05:48:17.430Z,16.53
2022-10-12T05:50:21.282Z,14.97
2022-10-12T05:52:24.004Z,12.50
2022-10-12T05:54:26.764Z,14.40
2022-10-12T05:56:30.949Z,12.80
2022-10-12T05:58:34.035Z,12.53
2022-10-12T06:00:36.819Z,11.80
2022-10-12T06:02:40.077Z,12.97
2022-10-12T06:04:43.398Z,11.67
2022-10-12T06:06:46.245Z,11.33
2022-10-12T06:08:48.976Z,11.77
2022-10-12T06:10:52.283Z,14.47
2022-10-12T06:12:56.476Z,11.83
2022-10-12T06:14:59.297Z,11.70
2022-10-12T06:17:02.086Z,11.57
2022-10-12T06:19:05.216Z,12.20
2022-10-12T06:21:28.371Z,10.33
2022-10-12T06:23:30.628Z,11.97
2022-10-12T06:25:33.673Z,12.20
2022-10-12T06:27:36.451Z,10.67
2022-10-12T06:29:40.485Z,11.60
2022-10-12T06:31:46.504Z,10.63
2022-10-12T06:33:52.476Z,9.90
2022-10-12T06:35:55.157Z,10.30
2022-10-12T06:37:57.903Z,9.60
2022-10-12T06:40:01.019Z,12.73
2022-10-12T06:42:03.869Z,10.90
2022-10-12T06:44:06.747Z,9.93
2022-10-12T06:46:10.961Z,9.67
2022-10-12T06:48:18.360Z,11.90
2022-10-12T06:50:21.586Z,11.00
2022-10-12T06:52:24.328Z,9.90
2022-10-12T06:54:27.047Z,10.73
2022-10-12T06:56:31.378Z,9.73
2022-10-12T06:58:34.102Z,10.83
2022-10-12T07:00:37.630Z,10.70
2022-10-12T07:02:41.852Z,11.20
2022-10-12T07:04:44.711Z,11.43
2022-10-12T07:06:47.443Z,12.87
2022-10-12T07:08:50.252Z,11.63
2022-10-12T07:11:01.366Z,11.50
2022-10-12T07:13:04.166Z,14.07
2022-10-12T07:15:07.535Z,13.73
2022-10-12T07:17:10.328Z,13.17
2022-10-12T07:19:14.748Z,12.80
2022-10-12T07:21:17.433Z,13.23
2022-10-12T07:23:20.102Z,13.10
2022-10-12T07:25:23.131Z,13.00
2022-10-12T07:27:26.219Z,14.37
2022-10-12T07:29:28.953Z,13.97
2022-10-12T07:31:31.612Z,15.33
2022-10-12T07:33:35.031Z,15.80
2022-10-12T07:36:03.379Z,15.00
2022-10-12T07:38:03.573Z,13.70
2022-10-12T07:40:07.119Z,14.57
2022-10-12T07:42:10.027Z,14.53
2022-10-12T07:44:13.187Z,16.83
2022-10-12T07:46:16.100Z,14.33
2022-10-12T07:48:18.853Z,14.93
2022-10-12T07:50:21.701Z,15.67
2022-10-12T07:52:27.472Z,16.33
2022-10-12T07:54:30.828Z,14.17
2022-10-12T07:56:33.626Z,16.90
2022-10-12T07:58:36.302Z,15.80
2022-10-12T08:00:39.660Z,15.00
2022-10-12T08:02:42.470Z,15.53
2022-10-12T08:04:45.295Z,18.20
2022-10-12T08:06:48.046Z,14.43
2022-10-12T08:08:52.292Z,15.17
2022-10-12T08:10:57.513Z,17.77
2022-10-12T08:13:00.213Z,16.03
2022-10-12T08:15:02.973Z,15.13
2022-10-12T08:17:06.377Z,16.00
2022-10-12T08:19:09.172Z,15.77
2022-10-12T08:21:13.163Z,15.10
2022-10-12T08:23:15.944Z,16.93
2022-10-12T08:25:20.532Z,15.80
2022-10-12T08:27:23.690Z,19.60
2022-10-12T08:29:26.539Z,16.40
2022-10-12T08:31:29.209Z,16.17
2022-10-12T08:33:32.152Z,15.10
2022-10-12T08:35:35.288Z,18.10
2022-10-12T08:37:38.447Z,15.20
2022-10-12T08:39:41.721Z,16.03
2022-10-12T08:41:49.164Z,15.83
2022-10-12T08:44:00.927Z,14.50
2022-10-12T08:46:03.932Z,14.50
2022-10-12T08:48:09.266Z,12.97
2022-10-12T08:50:17.124Z,16.37
2022-10-12T08:52:25.388Z,17.60
2022-10-12T08:54:29.899Z,13.00
2022-10-12T08:56:34.829Z,13.17
2022-10-12T08:58:39.403Z,16.60
2022-10-12T09:00:42.523Z,14.57
2022-10-12T09:02:51.861Z,16.07
2022-10-12T09:04:56.006Z,14.87
2022-10-12T09:07:00.705Z,15.93
2022-10-12T09:09:06.648Z,14.63
2022-10-12T09:11:15.817Z,17.20
2022-10-12T09:13:25.967Z,15.90
2022-10-12T09:15:32.366Z,17.07
2022-10-12T09:17:38.778Z,16.77
2022-10-12T09:19:42.107Z,16.63
2022-10-12T09:21:44.837Z,16.43
2022-10-12T09:23:47.815Z,13.00
2022-10-12T09:25:51.430Z,13.70
2022-10-12T09:27:54.805Z,15.83
2022-10-12T09:29:59.106Z,15.27
2022-10-12T09:32:14.632Z,15.50
2022-10-12T09:34:19.335Z,13.67
2022-10-12T09:36:23.727Z,15.17
2022-10-12T09:38:26.777Z,15.60
2022-10-12T09:40:32.194Z,17.63
2022-10-12T09:42:35.025Z,15.93
2022-10-12T09:44:40.114Z,13.20
2022-10-12T09:46:44.087Z,14.03
2022-10-12T09:48:58.878Z,16.00
2022-10-12T09:51:02.315Z,17.70
2022-10-12T09:53:14.077Z,18.90
2022-10-12T09:55:24.791Z,15.87
2022-10-12T09:57:29.369Z,13.53
2022-10-12T09:59:34.586Z,14.77
2022-10-12T10:01:37.469Z,14.80
2022-10-12T10:03:40.338Z,14.40
2022-10-12T10:05:44.354Z,18.53
2022-10-12T10:07:47.058Z,17.73
2022-10-12T10:09:50.451Z,15.73
2022-10-12T10:11:53.548Z,15.70
2022-10-12T10:13:56.717Z,13.00
2022-10-12T10:16:04.074Z,14.83
2022-10-12T10:18:09.243Z,18.97
2022-10-12T10:20:15.059Z,17.63
2022-10-12T10:22:19.509Z,13.90
2022-10-12T10:24:26.641Z,13.80
2022-10-12T10:26:32.258Z,16.53
2022-10-12T10:28:35.352Z,15.17
2022-10-12T10:30:41.089Z,15.20
2022-10-12T10:32:44.441Z,14.03
2022-10-12T10:34:47.545Z,12.30
2022-10-12T10:36:51.513Z,15.17
2022-10-12T10:38:57.329Z,13.87
2022-10-12T10:41:00.201Z,13.77
2022-10-12T10:43:04.807Z,16.67
2022-10-12T10:45:08.847Z,14.07
2022-10-12T10:47:12.754Z,13.90
2022-10-12T10:49:24.978Z,14.10
2022-10-12T10:51:41.742Z,12.03
2022-10-12T10:53:45.529Z,13.70
2022-10-12T10:55:51.909Z,13.60
2022-10-12T10:58:00.343Z,14.00
2022-10-12T11:00:26.411Z,10.83
2022-10-12T11:02:31.816Z,11.13
2022-10-12T11:04:38.247Z,13.80
2022-10-12T11:06:42.171Z,12.53
2022-10-12T11:08:45.004Z,11.67
2022-10-12T11:10:50.698Z,13.53
2022-10-12T11:12:56.305Z,14.07
2022-10-12T11:15:05.815Z,15.90
2022-10-12T11:17:12.182Z,12.37
2022-10-12T11:19:22.202Z,13.90
2022-10-12T11:21:26.153Z,15.63
2022-10-12T11:23:31.841Z,17.43
2022-10-12T11:25:38.890Z,14.13
2022-10-12T11:27:43.274Z,11.83
2022-10-12T11:30:02.932Z,13.43
2022-10-12T11:32:20.549Z,15.60
2022-10-12T11:34:26.113Z,11.63
2022-10-12T11:36:29.309Z,12.70
2022-10-12T11:38:33.720Z,15.13
2022-10-12T11:43:06.875Z,15.00
2022-10-12T11:45:18.818Z,17.37
2022-10-12T11:47:25.138Z,13.30
2022-10-12T11:49:29.579Z,14.63
2022-10-12T11:51:32.371Z,15.10
2022-10-12T11:53:37.674Z,12.73
2022-10-12T11:55:47.477Z,15.53
2022-10-12T11:57:50.301Z,15.93
2022-10-12T11:59:55.688Z,15.93
2022-10-12T12:02:02.621Z,15.63
2022-10-12T12:04:40.398Z,15.93
2022-10-12T12:06:49.989Z,14.47
2022-10-12T12:09:00.774Z,15.33
2022-10-12T12:11:05.762Z,15.70
2022-10-12T12:13:11.783Z,12.53
2022-10-12T12:15:23.499Z,16.13
2022-10-12T12:17:31.576Z,17.10
2022-10-12T12:19:38.493Z,17.93
2022-10-12T12:22:05.384Z,15.30
2022-10-12T12:24:08.254Z,15.67
2022-10-12T12:26:17.359Z,13.83
2022-10-12T12:28:21.295Z,25.20
2022-10-12T12:30:32.380Z,18.70
2022-10-12T12:32:43.063Z,16.90
2022-10-12T12:34:51.720Z,18.43
2022-10-12T12:36:57.318Z,17.00
2022-10-12T12:39:01.669Z,18.30
2022-10-12T12:41:07.905Z,15.30
2022-10-12T12:43:20.800Z,24.13
2022-10-12T12:45:41.662Z,15.00
2022-10-12T12:47:46.138Z,19.90
2022-10-12T12:49:49.875Z,14.20
2022-10-12T12:51:52.757Z,21.83
2022-10-12T12:53:59.660Z,15.00
2022-10-12T12:56:05.314Z,19.10
2022-10-12T12:58:20.031Z,16.00
2022-10-12T13:00:23.157Z,15.50
2022-10-12T13:02:48.079Z,15.87
2022-10-12T13:05:07.899Z,17.17
2022-10-12T13:07:23.018Z,23.33
2022-10-12T13:09:37.393Z,18.23
2022-10-12T13:11:49.589Z,17.20
2022-10-12T13:13:58.389Z,17.53
2022-10-12T13:16:19.461Z,17.93
2022-10-12T13:18:49.067Z,16.63
2022-10-12T13:20:59.986Z,16.47
2022-10-12T13:23:04.042Z,16.40
2022-10-12T13:25:09.563Z,17.73
2022-10-12T13:27:17.747Z,16.53
2022-10-12T13:29:23.017Z,19.13
2022-10-12T13:31:28.971Z,15.13
2022-10-12T13:33:34.208Z,16.67
2022-10-12T13:35:41.537Z,18.70
2022-10-12T13:37:44.418Z,17.93
2022-10-12T13:39:47.416Z,19.03
2022-10-12T13:41:52.568Z,18.33
2022-10-12T13:43:56.959Z,15.60
2022-10-12T13:46:00.708Z,14.23
2022-10-12T13:48:05.120Z,18.50
2022-10-12T13:50:18.129Z,18.53
2022-10-12T13:52:29.603Z,15.33
2022-10-12T13:54:36.612Z,16.43
2022-10-12T13:56:39.452Z,16.30
2022-10-12T13:58:42.532Z,16.27
2022-10-12T14:00:47.748Z,14.80
2022-10-12T14:02:56.555Z,15.30
2022-10-12T14:05:02.879Z,15.73
2022-10-12T14:07:08.207Z,18.90
2022-10-12T14:09:15.894Z,17.40
2022-10-12T14:11:20.555Z,22.03
2022-10-12T14:13:27.497Z,16.43
2022-10-12T14:15:33.034Z,28.20
2022-10-12T14:17:44.566Z,13.43
2022-10-12T14:19:48.857Z,15.97
2022-10-12T14:21:59.796Z,15.50
2022-10-12T14:24:10.219Z,15.67
2022-10-12T14:26:23.660Z,15.30
2022-10-12T14:28:29.452Z,15.27
2022-10-12T14:30:34.950Z,17.33
2022-10-12T14:32:42.478Z,13.93
2022-10-12T14:34:46.570Z,17.10
2022-10-12T14:37:03.916Z,15.20
2022-10-12T14:39:11.756Z,14.97
2022-10-12T14:41:32.825Z,16.17
2022-10-12T14:43:35.703Z,16.17
2022-10-12T14:45:43.863Z,15.53
2022-10-12T14:47:46.688Z,15.13
2022-10-12T14:49:50.289Z,12.30
2022-10-12T14:51:53.824Z,14.60
2022-10-12T14:54:00.763Z,13.20
2022-10-12T14:56:03.630Z,13.37
2022-10-12T14:58:08.283Z,13.07
2022-10-12T15:00:14.910Z,13.20
2022-10-12T15:02:20.189Z,16.53
2022-10-12T15:04:23.703Z,14.20
2022-10-12T15:06:26.597Z,14.63
2022-10-12T15:08:33.914Z,14.37
2022-10-12T15:10:37.322Z,13.40
2022-10-12T15:12:40.145Z,12.40
2022-10-12T15:14:44.707Z,14.80
2022-10-12T15:16:47.527Z,13.33
2022-10-12T15:18:50.380Z,16.50
2022-10-12T15:20:53.416Z,14.87
2022-10-12T15:22:56.572Z,13.87
2022-10-12T15:24:59.491Z,12.67
2022-10-12T15:27:02.360Z,12.30
2022-10-12T15:29:05.175Z,13.17
2022-10-12T15:31:17.379Z,11.70
2022-10-12T15:33:23.372Z,11.60
2022-10-12T15:35:27.336Z,11.60
2022-10-12T15:37:32.131Z,12.80
2022-10-12T15:39:35.166Z,21.87
2022-10-12T15:41:53.191Z,30.33
2022-10-12T15:43:56.343Z,12.70
2022-10-12T15:45:59.755Z,17.17
2022-10-12T15:48:06.044Z,11.23
2022-10-12T15:50:09.290Z,11.27
2022-10-12T15:52:13.600Z,11.80
2022-10-12T15:54:16.449Z,10.53
2022-10-12T15:56:19.288Z,10.80
2022-10-12T15:58:22.587Z,10.90
2022-10-12T16:00:26.342Z,11.77
2022-10-12T16:02:29.164Z,10.93
2022-10-12T16:04:33.237Z,11.00
2022-10-12T16:06:36.116Z,11.03
2022-10-12T16:08:39.526Z,11.33
2022-10-12T16:10:42.900Z,11.60
2022-10-12T16:12:46.501Z,12.57
2022-10-12T16:14:49.389Z,13.27
2022-10-12T16:16:52.197Z,12.93
2022-10-12T16:19:04.796Z,9.93
2022-10-12T16:21:09.135Z,9.57
2022-10-12T16:23:15.134Z,9.70
2022-10-12T16:25:21.512Z,9.93
2022-10-12T16:27:25.284Z,13.20
2022-10-12T16:29:32.617Z,10.40
2022-10-12T16:31:50.038Z,10.63
2022-10-12T16:33:52.839Z,11.20
2022-10-12T16:35:55.607Z,10.57
2022-10-12T16:38:00.310Z,10.63
2022-10-12T16:43:18.221Z,11.90
2022-10-12T16:48:23.100Z,12.10
2022-10-12T16:50:51.419Z,13.13
